sensor_id;sensor_type;location;lat;lon;timestamp;P1;durP1;ratioP1;P2;durP2;ratioP2
2772;SDS011;1394;47.044;15.744;2022-10-16T00:00:51;31.70;;;8.60;;
2772;SDS011;1394;47.044;15.744;2022-10-16T00:03:23;34.03;;;10.20;;
2772;SDS011;1394;47.044;15.744;2022-10-16T00:05:50;33.70;;;10.70;;
2772;SDS011;1394;47.044;15.744;2022-10-16T00:08:17;34.17;;;10.33;;
2772;SDS011;1394;47.044;15.744;2022-10-16T00:10:44;33.47;;;9.23;;
2772;SDS011;1394;47.044;15.744;2022-10-16T00:13:11;34.47;;;9.30;;
2772;SDS011;1394;47.044;15.744;2022-10-16T00:15:41;33.07;;;10.70;;
2772;SDS011;1394;47.044;15.744;2022-10-16T00:18:09;33.27;;;10.40;;
2772;SDS011;1394;47.044;15.744;2022-10-16T00:20:37;39.23;;;12.80;;
2772;SDS011;1394;47.044;15.744;2022-10-16T00:23:04;35.00;;;10.37;;
2772;SDS011;1394;47.044;15.744;2022-10-16T00:25:31;33.00;;;8.93;;
2772;SDS011;1394;47.044;15.744;2022-10-16T00:27:59;35.20;;;10.33;;
2772;SDS011;1394;47.044;15.744;2022-10-16T00:30:26;34.80;;;9.83;;
2772;SDS011;1394;47.044;15.744;2022-10-16T00:32:55;33.43;;;9.87;;
2772;SDS011;1394;47.044;15.744;2022-10-16T00:35:23;33.67;;;9.90;;
2772;SDS011;1394;47.044;15.744;2022-10-16T00:37:54;34.37;;;10.80;;
2772;SDS011;1394;47.044;15.744;2022-10-16T00:40:22;36.07;;;12.20;;
2772;SDS011;1394;47.044;15.744;2022-10-16T00:42:49;36.40;;;12.27;;
2772;SDS011;1394;47.044;15.744;2022-10-16T00:45:16;39.83;;;13.97;;
2772;SDS011;1394;47.044;15.744;2022-10-16T00:47:43;47.40;;;14.67;;
2772;SDS011;1394;47.044;15.744;2022-10-16T00:50:18;41.43;;;13.63;;
2772;SDS011;1394;47.044;15.744;2022-10-16T00:52:49;33.20;;;11.10;;
2772;SDS011;1394;47.044;15.744;2022-10-16T00:55:17;33.13;;;11.13;;
2772;SDS011;1394;47.044;15.744;2022-10-16T00:57:45;47.87;;;15.20;;
2772;SDS011;1394;47.044;15.744;2022-10-16T01:00:14;39.10;;;13.23;;
2772;SDS011;1394;47.044;15.744;2022-10-16T01:02:41;36.57;;;13.03;;
2772;SDS011;1394;47.044;15.744;2022-10-16T01:05:09;34.00;;;11.60;;
2772;SDS011;1394;47.044;15.744;2022-10-16T01:07:40;34.63;;;11.80;;
2772;SDS011;1394;47.044;15.744;2022-10-16T01:10:16;41.73;;;13.37;;
2772;SDS011;1394;47.044;15.744;2022-10-16T01:12:45;40.03;;;14.77;;
2772;SDS011;1394;47.044;15.744;2022-10-16T01:15:15;34.00;;;10.37;;
2772;SDS011;1394;47.044;15.744;2022-10-16T01:17:46;33.67;;;10.87;;
2772;SDS011;1394;47.044;15.744;2022-10-16T01:20:18;34.93;;;12.10;;
2772;SDS011;1394;47.044;15.744;2022-10-16T01:22:55;33.47;;;11.30;;
2772;SDS011;1394;47.044;15.744;2022-10-16T01:28:13;34.13;;;12.00;;
2772;SDS011;1394;47.044;15.744;2022-10-16T01:30:42;33.40;;;11.17;;
2772;SDS011;1394;47.044;15.744;2022-10-16T01:33:13;31.90;;;10.00;;
2772;SDS011;1394;47.044;15.744;2022-10-16T01:35:42;33.80;;;11.57;;
2772;SDS011;1394;47.044;15.744;2022-10-16T01:38:11;33.40;;;11.27;;
2772;SDS011;1394;47.044;15.744;2022-10-16T01:40:42;36.03;;;12.07;;
2772;SDS011;1394;47.044;15.744;2022-10-16T01:43:13;53.53;;;11.57;;
2772;SDS011;1394;47.044;15.744;2022-10-16T01:45:43;33.57;;;10.50;;
2772;SDS011;1394;47.044;15.744;2022-10-16T01:48:12;33.20;;;10.60;;
2772;SDS011;1394;47.044;15.744;2022-10-16T01:50:41;33.40;;;10.97;;
2772;SDS011;1394;47.044;15.744;2022-10-16T01:53:11;32.67;;;10.33;;
2772;SDS011;1394;47.044;15.744;2022-10-16T01:55:40;32.47;;;9.50;;
2772;SDS011;1394;47.044;15.744;2022-10-16T01:58:11;32.60;;;10.20;;
2772;SDS011;1394;47.044;15.744;2022-10-16T02:00:40;33.53;;;11.17;;
2772;SDS011;1394;47.044;15.744;2022-10-16T02:03:17;33.33;;;10.63;;
2772;SDS011;1394;47.044;15.744;2022-10-16T02:05:47;31.67;;;9.00;;
2772;SDS011;1394;47.044;15.744;2022-10-16T02:08:14;34.27;;;10.00;;
2772;SDS011;1394;47.044;15.744;2022-10-16T02:10:44;32.10;;;9.80;;
2772;SDS011;1394;47.044;15.744;2022-10-16T02:13:13;33.47;;;10.37;;
2772;SDS011;1394;47.044;15.744;2022-10-16T02:15:43;32.57;;;9.80;;
2772;SDS011;1394;47.044;15.744;2022-10-16T02:18:10;32.20;;;9.80;;
2772;SDS011;1394;47.044;15.744;2022-10-16T02:20:40;31.87;;;9.43;;
2772;SDS011;1394;47.044;15.744;2022-10-16T02:23:11;32.50;;;10.20;;
2772;SDS011;1394;47.044;15.744;2022-10-16T02:25:42;32.97;;;9.97;;
2772;SDS011;1394;47.044;15.744;2022-10-16T02:28:13;34.60;;;12.10;;
2772;SDS011;1394;47.044;15.744;2022-10-16T02:30:42;35.80;;;13.43;;
2772;SDS011;1394;47.044;15.744;2022-10-16T02:33:13;33.20;;;10.50;;
2772;SDS011;1394;47.044;15.744;2022-10-16T02:35:42;34.03;;;10.60;;
2772;SDS011;1394;47.044;15.744;2022-10-16T02:38:09;33.77;;;11.60;;
2772;SDS011;1394;47.044;15.744;2022-10-16T02:40:38;34.00;;;10.87;;
2772;SDS011;1394;47.044;15.744;2022-10-16T02:43:09;32.77;;;10.70;;
2772;SDS011;1394;47.044;15.744;2022-10-16T02:45:36;33.30;;;10.37;;
2772;SDS011;1394;47.044;15.744;2022-10-16T02:48:04;33.40;;;10.70;;
2772;SDS011;1394;47.044;15.744;2022-10-16T02:50:36;34.60;;;10.13;;
2772;SDS011;1394;47.044;15.744;2022-10-16T02:53:03;33.30;;;10.43;;
2772;SDS011;1394;47.044;15.744;2022-10-16T02:55:31;33.73;;;10.40;;
2772;SDS011;1394;47.044;15.744;2022-10-16T02:57:58;34.80;;;9.93;;
2772;SDS011;1394;47.044;15.744;2022-10-16T03:00:26;33.97;;;11.73;;
2772;SDS011;1394;47.044;15.744;2022-10-16T03:02:53;32.80;;;10.13;;
2772;SDS011;1394;47.044;15.744;2022-10-16T03:05:20;33.60;;;10.73;;
2772;SDS011;1394;47.044;15.744;2022-10-16T03:07:49;32.97;;;10.20;;
2772;SDS011;1394;47.044;15.744;2022-10-16T03:10:17;35.33;;;12.23;;
2772;SDS011;1394;47.044;15.744;2022-10-16T03:12:44;33.20;;;10.90;;
2772;SDS011;1394;47.044;15.744;2022-10-16T03:15:12;33.17;;;10.60;;
2772;SDS011;1394;47.044;15.744;2022-10-16T03:17:42;32.40;;;10.10;;
2772;SDS011;1394;47.044;15.744;2022-10-16T03:20:11;33.90;;;11.30;;
2772;SDS011;1394;47.044;15.744;2022-10-16T03:22:39;35.93;;;10.47;;
2772;SDS011;1394;47.044;15.744;2022-10-16T03:25:08;35.30;;;10.70;;
2772;SDS011;1394;47.044;15.744;2022-10-16T03:27:35;33.27;;;10.70;;
2772;SDS011;1394;47.044;15.744;2022-10-16T03:30:06;33.03;;;10.37;;
2772;SDS011;1394;47.044;15.744;2022-10-16T03:32:34;32.77;;;9.60;;
2772;SDS011;1394;47.044;15.744;2022-10-16T03:35:01;33.17;;;9.63;;
2772;SDS011;1394;47.044;15.744;2022-10-16T03:37:28;32.53;;;9.67;;
2772;SDS011;1394;47.044;15.744;2022-10-16T03:40:02;32.30;;;9.13;;
2772;SDS011;1394;47.044;15.744;2022-10-16T03:42:31;32.10;;;9.43;;
2772;SDS011;1394;47.044;15.744;2022-10-16T03:44:59;31.60;;;9.07;;
2772;SDS011;1394;47.044;15.744;2022-10-16T03:47:26;31.80;;;9.13;;
2772;SDS011;1394;47.044;15.744;2022-10-16T03:49:53;32.63;;;10.00;;
2772;SDS011;1394;47.044;15.744;2022-10-16T03:52:21;32.80;;;9.23;;
2772;SDS011;1394;47.044;15.744;2022-10-16T03:54:48;31.90;;;9.10;;
2772;SDS011;1394;47.044;15.744;2022-10-16T03:57:15;34.60;;;10.20;;
2772;SDS011;1394;47.044;15.744;2022-10-16T03:59:47;33.40;;;10.60;;
2772;SDS011;1394;47.044;15.744;2022-10-16T04:02:15;33.37;;;9.90;;
2772;SDS011;1394;47.044;15.744;2022-10-16T04:04:43;32.77;;;9.80;;
2772;SDS011;1394;47.044;15.744;2022-10-16T04:07:10;32.20;;;10.13;;
2772;SDS011;1394;47.044;15.744;2022-10-16T04:09:37;31.83;;;8.70;;
2772;SDS011;1394;47.044;15.744;2022-10-16T04:12:04;33.40;;;9.43;;
2772;SDS011;1394;47.044;15.744;2022-10-16T04:14:32;32.30;;;9.03;;
2772;SDS011;1394;47.044;15.744;2022-10-16T04:17:01;33.27;;;10.10;;
2772;SDS011;1394;47.044;15.744;2022-10-16T04:19:32;34.60;;;10.20;;
2772;SDS011;1394;47.044;15.744;2022-10-16T04:21:59;32.53;;;9.57;;
2772;SDS011;1394;47.044;15.744;2022-10-16T04:24:26;33.97;;;11.57;;
2772;SDS011;1394;47.044;15.744;2022-10-16T04:26:53;31.70;;;9.50;;
2772;SDS011;1394;47.044;15.744;2022-10-16T04:29:23;33.40;;;9.37;;
2772;SDS011;1394;47.044;15.744;2022-10-16T04:31:51;31.80;;;9.33;;
2772;SDS011;1394;47.044;15.744;2022-10-16T04:34:29;31.50;;;9.17;;
2772;SDS011;1394;47.044;15.744;2022-10-16T04:36:57;32.77;;;8.80;;
2772;SDS011;1394;47.044;15.744;2022-10-16T04:39:25;33.53;;;10.90;;
2772;SDS011;1394;47.044;15.744;2022-10-16T04:41:53;35.60;;;10.87;;
2772;SDS011;1394;47.044;15.744;2022-10-16T04:44:20;33.47;;;10.80;;
2772;SDS011;1394;47.044;15.744;2022-10-16T04:46:50;33.63;;;9.57;;
2772;SDS011;1394;47.044;15.744;2022-10-16T04:49:17;33.50;;;10.77;;
2772;SDS011;1394;47.044;15.744;2022-10-16T04:51:46;33.70;;;11.20;;
2772;SDS011;1394;47.044;15.744;2022-10-16T04:54:14;32.07;;;9.30;;
2772;SDS011;1394;47.044;15.744;2022-10-16T04:56:41;31.80;;;9.03;;
2772;SDS011;1394;47.044;15.744;2022-10-16T04:59:12;31.50;;;8.50;;
2772;SDS011;1394;47.044;15.744;2022-10-16T05:01:39;32.03;;;8.93;;
2772;SDS011;1394;47.044;15.744;2022-10-16T05:04:07;32.40;;;9.23;;
2772;SDS011;1394;47.044;15.744;2022-10-16T05:06:34;32.60;;;9.67;;
2772;SDS011;1394;47.044;15.744;2022-10-16T05:09:03;33.87;;;11.20;;
2772;SDS011;1394;47.044;15.744;2022-10-16T05:11:31;35.20;;;11.80;;
2772;SDS011;1394;47.044;15.744;2022-10-16T05:13:59;33.10;;;10.80;;
2772;SDS011;1394;47.044;15.744;2022-10-16T05:16:28;32.20;;;9.57;;
2772;SDS011;1394;47.044;15.744;2022-10-16T05:18:55;33.50;;;9.30;;
2772;SDS011;1394;47.044;15.744;2022-10-16T05:21:22;32.33;;;9.30;;
2772;SDS011;1394;47.044;15.744;2022-10-16T05:23:49;36.20;;;11.97;;
2772;SDS011;1394;47.044;15.744;2022-10-16T05:26:18;34.60;;;10.90;;
2772;SDS011;1394;47.044;15.744;2022-10-16T05:28:46;33.90;;;11.20;;
2772;SDS011;1394;47.044;15.744;2022-10-16T05:31:17;31.70;;;8.77;;
2772;SDS011;1394;47.044;15.744;2022-10-16T05:33:44;31.30;;;8.60;;
2772;SDS011;1394;47.044;15.744;2022-10-16T05:36:14;31.60;;;8.53;;
2772;SDS011;1394;47.044;15.744;2022-10-16T05:38:43;33.77;;;9.30;;
2772;SDS011;1394;47.044;15.744;2022-10-16T05:41:14;32.03;;;9.63;;
2772;SDS011;1394;47.044;15.744;2022-10-16T05:43:47;32.40;;;8.90;;
2772;SDS011;1394;47.044;15.744;2022-10-16T05:46:15;32.60;;;9.20;;
2772;SDS011;1394;47.044;15.744;2022-10-16T05:48:42;31.57;;;8.00;;
2772;SDS011;1394;47.044;15.744;2022-10-16T05:51:10;32.27;;;8.87;;
2772;SDS011;1394;47.044;15.744;2022-10-16T05:53:38;31.27;;;8.60;;
2772;SDS011;1394;47.044;15.744;2022-10-16T05:56:07;34.23;;;9.60;;
2772;SDS011;1394;47.044;15.744;2022-10-16T05:58:36;30.90;;;7.70;;
2772;SDS011;1394;47.044;15.744;2022-10-16T06:01:09;31.60;;;8.90;;
2772;SDS011;1394;47.044;15.744;2022-10-16T06:03:37;31.40;;;8.60;;
2772;SDS011;1394;47.044;15.744;2022-10-16T06:06:07;32.90;;;9.47;;
2772;SDS011;1394;47.044;15.744;2022-10-16T06:08:35;32.10;;;9.00;;
2772;SDS011;1394;47.044;15.744;2022-10-16T06:11:02;31.83;;;8.40;;
2772;SDS011;1394;47.044;15.744;2022-10-16T06:13:29;31.37;;;8.90;;
2772;SDS011;1394;47.044;15.744;2022-10-16T06:15:57;31.40;;;8.73;;
2772;SDS011;1394;47.044;15.744;2022-10-16T06:18:27;31.67;;;8.80;;
2772;SDS011;1394;47.044;15.744;2022-10-16T06:20:54;32.63;;;9.23;;
2772;SDS011;1394;47.044;15.744;2022-10-16T06:23:22;34.37;;;10.50;;
2772;SDS011;1394;47.044;15.744;2022-10-16T06:25:49;32.50;;;9.73;;
2772;SDS011;1394;47.044;15.744;2022-10-16T06:28:16;31.97;;;9.17;;
2772;SDS011;1394;47.044;15.744;2022-10-16T06:30:43;33.57;;;9.70;;
2772;SDS011;1394;47.044;15.744;2022-10-16T06:33:11;32.43;;;10.00;;
2772;SDS011;1394;47.044;15.744;2022-10-16T06:35:40;32.57;;;9.57;;
2772;SDS011;1394;47.044;15.744;2022-10-16T06:38:07;32.90;;;9.20;;
2772;SDS011;1394;47.044;15.744;2022-10-16T06:40:35;32.07;;;9.10;;
2772;SDS011;1394;47.044;15.744;2022-10-16T06:43:03;31.87;;;9.43;;
2772;SDS011;1394;47.044;15.744;2022-10-16T06:45:30;31.10;;;7.90;;
2772;SDS011;1394;47.044;15.744;2022-10-16T06:47:57;32.37;;;9.70;;
2772;SDS011;1394;47.044;15.744;2022-10-16T06:50:28;34.03;;;9.17;;
2772;SDS011;1394;47.044;15.744;2022-10-16T06:52:56;32.10;;;9.30;;
2772;SDS011;1394;47.044;15.744;2022-10-16T06:55:26;33.20;;;10.10;;
2772;SDS011;1394;47.044;15.744;2022-10-16T06:57:53;32.00;;;8.93;;
2772;SDS011;1394;47.044;15.744;2022-10-16T07:00:21;32.00;;;9.47;;
2772;SDS011;1394;47.044;15.744;2022-10-16T07:02:49;32.73;;;9.40;;
2772;SDS011;1394;47.044;15.744;2022-10-16T07:05:17;31.80;;;9.00;;
2772;SDS011;1394;47.044;15.744;2022-10-16T07:07:44;31.73;;;8.87;;
2772;SDS011;1394;47.044;15.744;2022-10-16T07:10:13;33.37;;;8.57;;
2772;SDS011;1394;47.044;15.744;2022-10-16T07:12:43;35.30;;;9.60;;
2772;SDS011;1394;47.044;15.744;2022-10-16T07:15:10;32.60;;;9.40;;
2772;SDS011;1394;47.044;15.744;2022-10-16T07:17:40;31.07;;;8.27;;
2772;SDS011;1394;47.044;15.744;2022-10-16T07:20:08;32.30;;;9.10;;
2772;SDS011;1394;47.044;15.744;2022-10-16T07:22:35;32.30;;;9.20;;
2772;SDS011;1394;47.044;15.744;2022-10-16T07:25:03;31.37;;;8.63;;
2772;SDS011;1394;47.044;15.744;2022-10-16T07:27:31;31.93;;;8.83;;
2772;SDS011;1394;47.044;15.744;2022-10-16T07:29:59;32.30;;;9.40;;
2772;SDS011;1394;47.044;15.744;2022-10-16T07:32:26;32.17;;;8.73;;
2772;SDS011;1394;47.044;15.744;2022-10-16T07:34:54;31.70;;;8.57;;
2772;SDS011;1394;47.044;15.744;2022-10-16T07:37:24;32.90;;;8.77;;
2772;SDS011;1394;47.044;15.744;2022-10-16T07:39:51;32.53;;;9.73;;
2772;SDS011;1394;47.044;15.744;2022-10-16T07:42:19;32.23;;;9.00;;
2772;SDS011;1394;47.044;15.744;2022-10-16T07:44:47;32.90;;;9.87;;
2772;SDS011;1394;47.044;15.744;2022-10-16T07:47:15;33.70;;;9.77;;
2772;SDS011;1394;47.044;15.744;2022-10-16T07:49:43;31.87;;;8.30;;
2772;SDS011;1394;47.044;15.744;2022-10-16T07:52:10;32.10;;;8.77;;
2772;SDS011;1394;47.044;15.744;2022-10-16T07:54:37;34.13;;;10.10;;
2772;SDS011;1394;47.044;15.744;2022-10-16T07:57:05;31.70;;;8.57;;
2772;SDS011;1394;47.044;15.744;2022-10-16T07:59:33;32.07;;;9.33;;
2772;SDS011;1394;47.044;15.744;2022-10-16T08:02:03;32.20;;;9.60;;
2772;SDS011;1394;47.044;15.744;2022-10-16T08:04:31;32.37;;;9.13;;
2772;SDS011;1394;47.044;15.744;2022-10-16T08:06:58;31.90;;;8.53;;
2772;SDS011;1394;47.044;15.744;2022-10-16T08:09:25;33.30;;;8.40;;
2772;SDS011;1394;47.044;15.744;2022-10-16T08:11:52;31.10;;;7.93;;
2772;SDS011;1394;47.044;15.744;2022-10-16T08:14:20;35.20;;;9.70;;
2772;SDS011;1394;47.044;15.744;2022-10-16T08:16:47;31.93;;;8.53;;
2772;SDS011;1394;47.044;15.744;2022-10-16T08:19:16;31.73;;;8.83;;
2772;SDS011;1394;47.044;15.744;2022-10-16T08:21:47;31.53;;;8.40;;
2772;SDS011;1394;47.044;15.744;2022-10-16T08:24:14;32.47;;;8.70;;
2772;SDS011;1394;47.044;15.744;2022-10-16T08:26:42;32.13;;;9.10;;
2772;SDS011;1394;47.044;15.744;2022-10-16T08:29:09;32.57;;;8.87;;
2772;SDS011;1394;47.044;15.744;2022-10-16T08:31:37;31.57;;;8.27;;
2772;SDS011;1394;47.044;15.744;2022-10-16T08:34:04;34.03;;;8.70;;
2772;SDS011;1394;47.044;15.744;2022-10-16T08:36:35;36.20;;;8.67;;
2772;SDS011;1394;47.044;15.744;2022-10-16T08:39:02;31.20;;;8.13;;
2772;SDS011;1394;47.044;15.744;2022-10-16T08:41:34;31.27;;;7.70;;
2772;SDS011;1394;47.044;15.744;2022-10-16T08:44:20;31.90;;;8.17;;
2772;SDS011;1394;47.044;15.744;2022-10-16T08:46:53;30.97;;;8.00;;
2772;SDS011;1394;47.044;15.744;2022-10-16T08:49:23;32.67;;;7.57;;
2772;SDS011;1394;47.044;15.744;2022-10-16T08:51:52;31.17;;;7.90;;
2772;SDS011;1394;47.044;15.744;2022-10-16T08:54:23;30.80;;;7.17;;
2772;SDS011;1394;47.044;15.744;2022-10-16T08:56:54;31.40;;;7.90;;
2772;SDS011;1394;47.044;15.744;2022-10-16T08:59:21;31.63;;;7.93;;
2772;SDS011;1394;47.044;15.744;2022-10-16T09:01:49;30.93;;;7.00;;
2772;SDS011;1394;47.044;15.744;2022-10-16T09:04:26;30.93;;;7.53;;
2772;SDS011;1394;47.044;15.744;2022-10-16T09:07:00;31.57;;;7.97;;
2772;SDS011;1394;47.044;15.744;2022-10-16T09:09:36;31.77;;;7.20;;
2772;SDS011;1394;47.044;15.744;2022-10-16T09:12:12;31.57;;;6.90;;
2772;SDS011;1394;47.044;15.744;2022-10-16T09:14:45;30.97;;;7.17;;
2772;SDS011;1394;47.044;15.744;2022-10-16T09:17:20;31.57;;;6.90;;
2772;SDS011;1394;47.044;15.744;2022-10-16T09:19:50;30.77;;;6.50;;
2772;SDS011;1394;47.044;15.744;2022-10-16T09:22:24;31.40;;;6.90;;
2772;SDS011;1394;47.044;15.744;2022-10-16T09:24:52;31.20;;;7.40;;
2772;SDS011;1394;47.044;15.744;2022-10-16T09:27:20;31.20;;;6.90;;
2772;SDS011;1394;47.044;15.744;2022-10-16T09:29:48;31.83;;;7.53;;
2772;SDS011;1394;47.044;15.744;2022-10-16T09:32:15;30.67;;;6.63;;
2772;SDS011;1394;47.044;15.744;2022-10-16T09:34:51;31.20;;;6.60;;
2772;SDS011;1394;47.044;15.744;2022-10-16T09:37:22;30.83;;;6.30;;
2772;SDS011;1394;47.044;15.744;2022-10-16T09:39:52;31.50;;;6.50;;
2772;SDS011;1394;47.044;15.744;2022-10-16T09:42:19;30.80;;;6.53;;
2772;SDS011;1394;47.044;15.744;2022-10-16T09:44:48;30.40;;;6.30;;
2772;SDS011;1394;47.044;15.744;2022-10-16T09:47:16;30.10;;;5.90;;
2772;SDS011;1394;47.044;15.744;2022-10-16T09:49:52;31.70;;;6.00;;
2772;SDS011;1394;47.044;15.744;2022-10-16T09:52:20;30.50;;;6.00;;
2772;SDS011;1394;47.044;15.744;2022-10-16T09:54:53;30.80;;;6.77;;
2772;SDS011;1394;47.044;15.744;2022-10-16T09:57:20;32.70;;;6.37;;
2772;SDS011;1394;47.044;15.744;2022-10-16T09:59:48;30.30;;;6.00;;
2772;SDS011;1394;47.044;15.744;2022-10-16T10:02:16;30.97;;;6.13;;
2772;SDS011;1394;47.044;15.744;2022-10-16T10:04:47;30.37;;;5.90;;
2772;SDS011;1394;47.044;15.744;2022-10-16T10:07:19;30.17;;;6.13;;
2772;SDS011;1394;47.044;15.744;2022-10-16T10:09:48;30.60;;;6.27;;
2772;SDS011;1394;47.044;15.744;2022-10-16T10:12:18;30.23;;;6.27;;
2772;SDS011;1394;47.044;15.744;2022-10-16T10:14:47;30.20;;;5.90;;
2772;SDS011;1394;47.044;15.744;2022-10-16T10:17:16;30.60;;;5.80;;
2772;SDS011;1394;47.044;15.744;2022-10-16T10:19:51;32.30;;;6.50;;
2772;SDS011;1394;47.044;15.744;2022-10-16T10:22:24;30.30;;;5.97;;
2772;SDS011;1394;47.044;15.744;2022-10-16T10:24:54;29.87;;;5.40;;
2772;SDS011;1394;47.044;15.744;2022-10-16T10:27:24;30.57;;;5.80;;
2772;SDS011;1394;47.044;15.744;2022-10-16T10:29:53;30.00;;;5.20;;
2772;SDS011;1394;47.044;15.744;2022-10-16T10:32:27;30.07;;;5.57;;
2772;SDS011;1394;47.044;15.744;2022-10-16T10:35:02;30.70;;;6.03;;
2772;SDS011;1394;47.044;15.744;2022-10-16T10:37:37;29.37;;;4.87;;
2772;SDS011;1394;47.044;15.744;2022-10-16T10:40:09;29.17;;;4.80;;
2772;SDS011;1394;47.044;15.744;2022-10-16T10:42:41;30.07;;;4.90;;
2772;SDS011;1394;47.044;15.744;2022-10-16T10:45:16;29.10;;;4.23;;
2772;SDS011;1394;47.044;15.744;2022-10-16T10:47:49;30.00;;;5.00;;
2772;SDS011;1394;47.044;15.744;2022-10-16T10:50:20;29.97;;;4.90;;
2772;SDS011;1394;47.044;15.744;2022-10-16T10:52:56;29.67;;;4.70;;
2772;SDS011;1394;47.044;15.744;2022-10-16T10:55:26;29.27;;;4.70;;
2772;SDS011;1394;47.044;15.744;2022-10-16T10:58:10;30.27;;;4.80;;
2772;SDS011;1394;47.044;15.744;2022-10-16T11:00:42;30.67;;;4.90;;
2772;SDS011;1394;47.044;15.744;2022-10-16T11:03:13;29.77;;;5.00;;
2772;SDS011;1394;47.044;15.744;2022-10-16T11:05:47;29.67;;;4.97;;
2772;SDS011;1394;47.044;15.744;2022-10-16T11:08:18;28.90;;;4.90;;
2772;SDS011;1394;47.044;15.744;2022-10-16T11:10:50;30.33;;;4.80;;
2772;SDS011;1394;47.044;15.744;2022-10-16T11:13:22;29.00;;;5.00;;
2772;SDS011;1394;47.044;15.744;2022-10-16T11:15:50;29.50;;;4.90;;
2772;SDS011;1394;47.044;15.744;2022-10-16T11:18:19;29.30;;;4.97;;
2772;SDS011;1394;47.044;15.744;2022-10-16T11:20:49;28.70;;;4.50;;
2772;SDS011;1394;47.044;15.744;2022-10-16T11:23:18;29.57;;;5.37;;
2772;SDS011;1394;47.044;15.744;2022-10-16T11:25:48;29.73;;;5.03;;
2772;SDS011;1394;47.044;15.744;2022-10-16T11:28:17;29.97;;;5.10;;
2772;SDS011;1394;47.044;15.744;2022-10-16T11:30:49;29.50;;;5.70;;
2772;SDS011;1394;47.044;15.744;2022-10-16T11:33:22;30.87;;;5.10;;
2772;SDS011;1394;47.044;15.744;2022-10-16T11:35:53;30.37;;;5.43;;
2772;SDS011;1394;47.044;15.744;2022-10-16T11:38:25;29.17;;;5.43;;
2772;SDS011;1394;47.044;15.744;2022-10-16T11:40:54;29.60;;;5.20;;
2772;SDS011;1394;47.044;15.744;2022-10-16T11:43:25;29.50;;;5.70;;
2772;SDS011;1394;47.044;15.744;2022-10-16T11:45:55;29.20;;;5.27;;
2772;SDS011;1394;47.044;15.744;2022-10-16T11:48:27;29.97;;;5.10;;
2772;SDS011;1394;47.044;15.744;2022-10-16T11:50:58;29.33;;;5.13;;
2772;SDS011;1394;47.044;15.744;2022-10-16T11:53:34;29.60;;;5.80;;
2772;SDS011;1394;47.044;15.744;2022-10-16T11:56:02;30.70;;;6.00;;
2772;SDS011;1394;47.044;15.744;2022-10-16T11:58:31;30.00;;;6.10;;
2772;SDS011;1394;47.044;15.744;2022-10-16T12:01:04;29.70;;;6.40;;
2772;SDS011;1394;47.044;15.744;2022-10-16T12:03:40;30.10;;;5.47;;
2772;SDS011;1394;47.044;15.744;2022-10-16T12:06:22;29.77;;;5.53;;
2772;SDS011;1394;47.044;15.744;2022-10-16T12:08:51;29.90;;;5.50;;
2772;SDS011;1394;47.044;15.744;2022-10-16T12:11:23;29.90;;;5.67;;
2772;SDS011;1394;47.044;15.744;2022-10-16T12:14:16;29.97;;;5.27;;
2772;SDS011;1394;47.044;15.744;2022-10-16T12:16:56;29.43;;;5.70;;
2772;SDS011;1394;47.044;15.744;2022-10-16T12:19:25;30.77;;;5.57;;
2772;SDS011;1394;47.044;15.744;2022-10-16T12:21:54;29.60;;;5.70;;
2772;SDS011;1394;47.044;15.744;2022-10-16T12:24:28;29.63;;;6.00;;
2772;SDS011;1394;47.044;15.744;2022-10-16T12:26:57;29.33;;;5.37;;
2772;SDS011;1394;47.044;15.744;2022-10-16T12:29:30;29.60;;;5.43;;
2772;SDS011;1394;47.044;15.744;2022-10-16T12:32:00;29.43;;;5.00;;
2772;SDS011;1394;47.044;15.744;2022-10-16T12:34:29;29.53;;;5.63;;
2772;SDS011;1394;47.044;15.744;2022-10-16T12:37:07;30.53;;;6.20;;
2772;SDS011;1394;47.044;15.744;2022-10-16T12:39:36;29.83;;;5.90;;
2772;SDS011;1394;47.044;15.744;2022-10-16T12:42:04;31.67;;;5.57;;
2772;SDS011;1394;47.044;15.744;2022-10-16T12:44:33;29.40;;;4.77;;
2772;SDS011;1394;47.044;15.744;2022-10-16T12:47:02;29.70;;;4.43;;
2772;SDS011;1394;47.044;15.744;2022-10-16T12:49:34;30.10;;;5.53;;
2772;SDS011;1394;47.044;15.744;2022-10-16T12:52:03;29.73;;;5.40;;
2772;SDS011;1394;47.044;15.744;2022-10-16T12:54:34;29.30;;;5.33;;
2772;SDS011;1394;47.044;15.744;2022-10-16T12:57:12;28.70;;;4.50;;
2772;SDS011;1394;47.044;15.744;2022-10-16T12:59:47;29.10;;;5.10;;
2772;SDS011;1394;47.044;15.744;2022-10-16T13:02:24;30.97;;;4.97;;
2772;SDS011;1394;47.044;15.744;2022-10-16T13:05:00;29.00;;;4.50;;
2772;SDS011;1394;47.044;15.744;2022-10-16T13:07:40;28.60;;;4.67;;
2772;SDS011;1394;47.044;15.744;2022-10-16T13:10:12;28.70;;;4.60;;
2772;SDS011;1394;47.044;15.744;2022-10-16T13:12:49;29.00;;;4.50;;
2772;SDS011;1394;47.044;15.744;2022-10-16T13:15:30;28.50;;;4.50;;
2772;SDS011;1394;47.044;15.744;2022-10-16T13:18:03;29.00;;;4.93;;
2772;SDS011;1394;47.044;15.744;2022-10-16T13:20:36;29.10;;;5.27;;
2772;SDS011;1394;47.044;15.744;2022-10-16T13:23:09;29.37;;;5.30;;
2772;SDS011;1394;47.044;15.744;2022-10-16T13:25:48;29.50;;;4.93;;
2772;SDS011;1394;47.044;15.744;2022-10-16T13:28:17;29.70;;;4.90;;
2772;SDS011;1394;47.044;15.744;2022-10-16T13:30:52;29.07;;;5.27;;
2772;SDS011;1394;47.044;15.744;2022-10-16T13:33:23;29.20;;;4.53;;
2772;SDS011;1394;47.044;15.744;2022-10-16T13:35:53;28.90;;;5.03;;
2772;SDS011;1394;47.044;15.744;2022-10-16T13:38:21;29.90;;;4.90;;
2772;SDS011;1394;47.044;15.744;2022-10-16T13:40:49;29.13;;;5.03;;
2772;SDS011;1394;47.044;15.744;2022-10-16T13:43:17;30.07;;;5.10;;
2772;SDS011;1394;47.044;15.744;2022-10-16T13:45:52;30.07;;;5.00;;
2772;SDS011;1394;47.044;15.744;2022-10-16T13:48:22;28.90;;;4.80;;
2772;SDS011;1394;47.044;15.744;2022-10-16T13:50:59;29.50;;;4.80;;
2772;SDS011;1394;47.044;15.744;2022-10-16T13:53:27;32.13;;;5.40;;
2772;SDS011;1394;47.044;15.744;2022-10-16T13:55:54;29.37;;;5.30;;
2772;SDS011;1394;47.044;15.744;2022-10-16T13:58:22;30.97;;;5.10;;
2772;SDS011;1394;47.044;15.744;2022-10-16T14:00:53;30.47;;;5.70;;
2772;SDS011;1394;47.044;15.744;2022-10-16T14:03:23;30.50;;;6.20;;
2772;SDS011;1394;47.044;15.744;2022-10-16T14:05:55;30.80;;;6.13;;
2772;SDS011;1394;47.044;15.744;2022-10-16T14:08:23;29.90;;;4.90;;
2772;SDS011;1394;47.044;15.744;2022-10-16T14:10:52;29.77;;;5.70;;
2772;SDS011;1394;47.044;15.744;2022-10-16T14:13:22;30.57;;;6.20;;
2772;SDS011;1394;47.044;15.744;2022-10-16T14:15:52;31.20;;;6.47;;
2772;SDS011;1394;47.044;15.744;2022-10-16T14:18:24;30.40;;;6.27;;
2772;SDS011;1394;47.044;15.744;2022-10-16T14:20:52;30.77;;;6.10;;
2772;SDS011;1394;47.044;15.744;2022-10-16T14:23:20;30.90;;;6.43;;
2772;SDS011;1394;47.044;15.744;2022-10-16T14:25:48;30.40;;;5.93;;
2772;SDS011;1394;47.044;15.744;2022-10-16T14:28:17;30.77;;;6.67;;
2772;SDS011;1394;47.044;15.744;2022-10-16T14:30:51;31.50;;;7.47;;
2772;SDS011;1394;47.044;15.744;2022-10-16T14:33:21;31.07;;;7.40;;
2772;SDS011;1394;47.044;15.744;2022-10-16T14:36:00;30.80;;;6.90;;
2772;SDS011;1394;47.044;15.744;2022-10-16T14:38:27;32.27;;;7.87;;
2772;SDS011;1394;47.044;15.744;2022-10-16T14:40:57;31.20;;;7.17;;
2772;SDS011;1394;47.044;15.744;2022-10-16T14:43:27;31.90;;;8.30;;
2772;SDS011;1394;47.044;15.744;2022-10-16T14:45:56;30.80;;;7.50;;
2772;SDS011;1394;47.044;15.744;2022-10-16T14:48:23;31.40;;;7.20;;
2772;SDS011;1394;47.044;15.744;2022-10-16T14:50:51;32.03;;;7.40;;
2772;SDS011;1394;47.044;15.744;2022-10-16T14:53:20;30.90;;;7.20;;
2772;SDS011;1394;47.044;15.744;2022-10-16T14:55:47;30.93;;;7.30;;
2772;SDS011;1394;47.044;15.744;2022-10-16T14:58:15;30.70;;;7.50;;
2772;SDS011;1394;47.044;15.744;2022-10-16T15:00:46;30.97;;;7.47;;
2772;SDS011;1394;47.044;15.744;2022-10-16T15:03:14;31.50;;;7.30;;